Time;durP1;ratioP1;P1;durP2;ratioP2;P2;SDS_P1;SDS_P2;PMS_P1;PMS_P2;Temp;Humidity;BMP_temperature;BMP_pressure;BME280_temperature;BME280_humidity;BME280_pressure;Samples;Min_cycle;Max_cycle;Signal;HPM_P1;HPM_P2
2021/12/24 00:00:22;;;;;;;25.77;19.30;;;;;;;6.14;94.36;97473.28;4944461;28;20643;-88
2021/12/24 00:02:50;;;;;;;29.83;21.50;;;;;;;6.12;94.31;97470.78;4930432;29;20663;-89
2021/12/24 00:05:18;;;;;;;29.53;19.90;;;;;;;6.14;93.61;97479.28;4908933;29;20662;-88
2021/12/24 00:07:49;;;;;;;21.97;16.33;;;;;;;6.16;93.60;97477.47;4915370;29;20654;-88
2021/12/24 00:10:17;;;;;;;22.93;15.77;;;;;;;6.17;93.17;97478.28;4929731;29;20772;-88
2021/12/24 00:12:58;;;;;;;21.07;15.40;;;;;;;6.19;92.84;97471.25;4929199;29;21063;-89
2021/12/24 00:15:49;;;;;;;19.63;13.87;;;;;;;6.22;93.38;97471.06;4947164;28;20648;-89
2021/12/24 00:18:27;;;;;;;23.20;16.60;;;;;;;6.21;93.54;97467.66;4929605;29;20649;-88
2021/12/24 00:37:49;;;;;;;16.90;11.50;;;;;;;6.26;93.38;97449.25;4872288;29;20750;-87
2021/12/24 00:40:19;;;;;;;17.80;13.17;;;;;;;6.31;93.70;97444.59;4896476;29;20643;-88
2021/12/24 00:42:49;;;;;;;14.17;11.03;;;;;;;6.39;94.00;97442.34;4925420;29;21247;-88
2021/12/24 00:45:19;;;;;;;16.33;12.20;;;;;;;6.39;94.57;97442.34;4928152;29;21437;-88
2021/12/24 00:47:49;;;;;;;18.87;14.30;;;;;;;6.46;94.15;97441.06;4927138;29;20664;-88
2021/12/24 00:50:22;;;;;;;15.10;12.80;;;;;;;6.47;94.29;97440.16;4928254;29;20659;-88
2021/12/24 00:52:56;;;;;;;18.60;14.23;;;;;;;6.45;93.53;97440.25;4927916;29;20645;-88
2021/12/24 00:55:26;;;;;;;23.07;16.40;;;;;;;6.42;93.00;97443.03;4925291;29;20646;-88
2021/12/24 00:58:00;;;;;;;18.93;16.50;;;;;;;6.38;93.12;97433.78;4914493;29;20626;-88
2021/12/24 01:00:34;;;;;;;22.87;17.70;;;;;;;6.38;92.46;97433.78;4911806;29;20659;-87
2021/12/24 01:03:05;;;;;;;25.53;17.10;;;;;;;6.36;92.34;97427.88;4924100;29;20659;-87
2021/12/24 01:05:35;;;;;;;20.17;15.93;;;;;;;6.38;92.97;97425.19;4932007;29;20668;-88
2021/12/24 01:08:06;;;;;;;22.60;17.87;;;;;;;6.37;92.65;97421.75;4926151;29;21302;-89
2021/12/24 01:10:37;;;;;;;30.80;21.00;;;;;;;6.38;92.75;97426.00;4937137;29;20649;-88
2021/12/24 01:13:06;;;;;;;23.77;18.47;;;;;;;6.36;92.73;97422.69;4934014;29;20642;-88
2021/12/24 01:15:37;;;;;;;28.50;18.07;;;;;;;6.38;92.28;97428.59;4944544;28;21196;-87
2021/12/24 01:18:19;;;;;;;24.23;16.77;;;;;;;6.42;92.90;97432.66;4927632;29;21245;-88
2021/12/24 01:20:52;;;;;;;23.30;16.70;;;;;;;6.40;92.94;97425.91;4929247;29;21006;-88
2021/12/24 01:23:33;;;;;;;19.93;15.07;;;;;;;6.42;93.30;97426.63;4930266;29;20644;-88
2021/12/24 01:26:04;;;;;;;16.80;13.60;;;;;;;6.44;93.23;97417.84;4912384;29;20642;-87
2021/12/24 01:28:44;;;;;;;19.17;13.87;;;;;;;6.52;94.28;97425.97;4928329;28;21021;-87
2021/12/24 01:39:53;;;;;;;18.93;13.60;;;;;;;6.67;93.91;97425.00;4914649;29;20659;-88
2021/12/24 01:42:42;;;;;;;16.20;12.50;;;;;;;6.69;94.85;97429.16;4931781;29;20674;-88
2021/12/24 01:45:16;;;;;;;24.57;17.50;;;;;;;6.68;93.96;97418.91;4915714;29;21288;-88
2021/12/24 01:47:44;;;;;;;14.03;11.40;;;;;;;6.66;93.66;97423.31;4931855;29;20658;-88
2021/12/24 01:50:15;;;;;;;15.53;11.60;;;;;;;6.65;93.89;97411.31;4934173;29;20646;-88
2021/12/24 01:52:44;;;;;;;17.60;11.77;;;;;;;6.65;94.35;97416.50;4945697;28;20643;-87
2021/12/24 01:55:12;;;;;;;17.43;10.20;;;;;;;6.63;94.40;97415.75;4924863;29;20642;-87
2021/12/24 01:57:42;;;;;;;14.17;10.47;;;;;;;6.70;94.01;97414.44;4925904;29;20633;-88
2021/12/24 02:00:13;;;;;;;12.53;9.50;;;;;;;6.74;94.41;97413.31;4931029;29;20634;-88
2021/12/24 02:02:41;;;;;;;13.00;10.20;;;;;;;6.75;94.33;97405.44;4932504;29;20661;-88
2021/12/24 02:05:10;;;;;;;13.43;10.63;;;;;;;6.75;94.50;97397.69;4915231;29;20641;-88
2021/12/24 02:07:40;;;;;;;13.50;10.40;;;;;;;6.76;94.89;97391.56;4930359;29;20701;-88
2021/12/24 02:10:11;;;;;;;13.40;9.70;;;;;;;6.77;94.89;97393.22;4948139;28;20727;-87
2021/12/24 02:12:39;;;;;;;14.40;10.63;;;;;;;6.80;94.81;97392.19;4947637;29;21724;-87
2021/12/24 02:15:19;;;;;;;12.83;10.20;;;;;;;6.80;94.71;97381.84;4914692;29;20662;-88
2021/12/24 02:28:56;;;;;;;10.50;7.40;;;;;;;6.96;94.80;97369.53;4944701;28;20671;-88
2021/12/24 02:31:26;;;;;;;10.83;8.40;;;;;;;6.99;95.39;97367.59;4928544;29;21022;-88
2021/12/24 02:33:56;;;;;;;10.90;8.50;;;;;;;6.97;95.26;97356.47;4932057;29;20632;-88
2021/12/24 02:36:29;;;;;;;25.53;20.30;;;;;;;6.91;93.93;97358.63;4951029;28;20668;-88
2021/12/24 02:38:58;;;;;;;25.40;17.70;;;;;;;6.84;93.64;97352.19;4929901;29;20713;-88
2021/12/24 02:41:28;;;;;;;27.07;18.93;;;;;;;6.80;92.64;97356.75;4947538;28;20642;-87
2021/12/24 02:43:56;;;;;;;18.47;14.60;;;;;;;6.78;93.19;97356.03;4929150;29;20649;-88
2021/12/24 02:46:30;;;;;;;16.17;11.77;;;;;;;6.82;93.34;97356.66;4909071;29;20672;-88
2021/12/24 02:49:13;;;;;;;15.70;10.93;;;;;;;6.86;93.39;97355.53;4929426;29;20721;-88
2021/12/24 02:54:28;;;;;;;13.90;9.20;;;;;;;6.99;94.41;97348.59;4930277;29;20634;-88
2021/12/24 02:57:06;;;;;;;14.60;10.03;;;;;;;7.04;94.99;97339.59;4931451;29;20650;-88
2021/12/24 02:59:44;;;;;;;13.57;9.83;;;;;;;7.06;94.44;97330.75;4916723;29;20715;-88
2021/12/24 03:02:12;;;;;;;13.93;10.40;;;;;;;7.09;94.86;97327.97;4926748;29;20672;-88
2021/12/24 03:04:40;;;;;;;13.80;10.53;;;;;;;7.07;94.19;97321.25;4931617;29;20695;-88
2021/12/24 03:07:10;;;;;;;13.43;9.20;;;;;;;7.05;95.57;97317.91;4913521;29;20732;-88
2021/12/24 03:09:38;;;;;;;15.30;10.70;;;;;;;7.05;93.51;97316.16;4930586;29;20644;-88
2021/12/24 03:12:09;;;;;;;9.57;6.57;;;;;;;7.06;95.13;97314.38;4933237;29;20710;-87
2021/12/24 03:14:37;;;;;;;9.93;7.50;;;;;;;7.09;94.25;97319.38;4947529;28;21229;-88
2021/12/24 03:17:10;;;;;;;9.53;6.60;;;;;;;7.07;95.85;97313.47;4930539;29;20643;-87
2021/12/24 03:19:40;;;;;;;11.60;8.60;;;;;;;7.10;94.32;97323.63;4914247;29;20642;-88
2021/12/24 03:22:28;;;;;;;11.83;8.90;;;;;;;7.05;94.96;97316.16;4928161;29;21233;-87
2021/12/24 03:24:56;;;;;;;9.43;7.47;;;;;;;7.09;94.10;97320.19;4932780;29;20646;-88
2021/12/24 03:27:24;;;;;;;9.27;7.00;;;;;;;7.08;94.45;97315.97;4943075;28;20676;-87
2021/12/24 03:29:55;;;;;;;10.70;7.70;;;;;;;7.12;95.09;97316.56;4913843;29;21231;-88
2021/12/24 03:32:23;;;;;;;10.00;6.80;;;;;;;7.18;94.80;97309.19;4912976;29;20672;-88
2021/12/24 03:34:53;;;;;;;9.43;8.00;;;;;;;7.20;95.79;97322.91;4930841;29;20725;-88
2021/12/24 03:37:23;;;;;;;13.37;9.50;;;;;;;7.18;95.00;97311.78;4931388;29;20644;-88
2021/12/24 03:39:51;;;;;;;14.60;11.00;;;;;;;7.19;95.29;97310.88;4943662;28;20705;-88
2021/12/24 03:42:22;;;;;;;11.50;9.17;;;;;;;7.20;95.06;97307.34;4933367;29;21245;-88
2021/12/24 03:44:58;;;;;;;13.63;8.80;;;;;;;7.24;94.28;97308.78;4928667;29;20639;-88
2021/12/24 03:47:33;;;;;;;20.60;15.27;;;;;;;7.22;93.43;97304.66;4945852;28;21235;-88
2021/12/24 03:50:08;;;;;;;16.93;12.30;;;;;;;7.22;94.44;97300.28;4929311;29;20666;-87
2021/12/24 03:53:01;;;;;;;13.60;10.30;;;;;;;7.23;94.10;97289.00;4927943;29;20734;-88
2021/12/24 03:55:29;;;;;;;10.40;7.87;;;;;;;7.27;92.90;97289.63;4945828;28;20638;-88
2021/12/24 03:57:57;;;;;;;9.57;6.60;;;;;;;7.28;93.46;97286.91;4917227;29;20643;-88
2021/12/24 04:00:44;;;;;;;8.37;6.23;;;;;;;7.36;93.17;97294.16;4934876;29;20646;-88
2021/12/24 04:03:24;;;;;;;9.43;6.93;;;;;;;7.41;93.62;97294.69;4930960;29;20765;-88
2021/12/24 04:06:11;;;;;;;10.33;7.57;;;;;;;7.38;94.70;97300.94;4935690;29;20660;-88
2021/12/24 04:09:06;;;;;;;10.90;7.80;;;;;;;7.34;93.98;97283.91;4877982;29;21357;-88
2021/12/24 04:11:48;;;;;;;17.80;12.67;;;;;;;7.33;93.05;97289.19;4931973;29;20625;-89
2021/12/24 04:14:17;;;;;;;17.93;12.60;;;;;;;7.28;93.73;97296.47;4916239;29;20738;-89
2021/12/24 04:16:48;;;;;;;14.40;11.00;;;;;;;7.26;93.14;97293.97;4910115;29;20649;-89
2021/12/24 04:19:36;;;;;;;10.10;7.90;;;;;;;7.27;93.71;97287.84;4915750;29;20647;-88
2021/12/24 04:24:53;;;;;;;8.93;6.50;;;;;;;7.36;94.05;97276.03;4946948;28;20650;-88
2021/12/24 04:27:24;;;;;;;8.97;6.40;;;;;;;7.41;93.72;97282.53;4947859;28;21170;-87
2021/12/24 04:30:01;;;;;;;9.90;6.43;;;;;;;7.41;93.45;97272.16;4926431;29;20641;-88
2021/12/24 04:32:49;;;;;;;17.03;13.40;;;;;;;7.42;93.53;97278.19;4912205;29;21289;-88
2021/12/24 04:35:39;;;;;;;13.27;10.10;;;;;;;7.37;93.34;97278.50;4931187;29;20742;-88
2021/12/24 04:52:03;;;;;;;16.53;11.80;;;;;;;7.41;92.91;97263.56;4933049;29;20645;-88
2021/12/24 05:03:00;;;;;;;8.67;5.60;;;;;;;7.64;94.02;97258.44;4912531;29;20652;-87
2021/12/24 05:05:44;;;;;;;7.03;5.77;;;;;;;7.68;93.88;97257.28;4929187;29;20670;-87
2021/12/24 05:08:21;;;;;;;7.73;5.50;;;;;;;7.77;93.60;97259.22;4907045;29;20668;-87
2021/12/24 05:10:51;;;;;;;6.87;5.13;;;;;;;7.86;94.42;97248.19;4924339;29;21220;-88
2021/12/24 05:13:23;;;;;;;9.57;5.20;;;;;;;7.94;93.20;97245.88;4928720;29;20693;-88
2021/12/24 05:16:20;;;;;;;6.73;4.73;;;;;;;8.00;92.61;97247.09;4931239;29;20633;-88
2021/12/24 05:22:24;;;;;;;6.90;4.73;;;;;;;8.06;92.06;97248.44;4944335;28;20640;-87
2021/12/24 05:24:54;;;;;;;5.83;4.63;;;;;;;8.05;92.41;97250.19;4929263;29;20651;-88
2021/12/24 05:27:22;;;;;;;7.57;5.07;;;;;;;8.09;92.22;97249.03;4922433;29;20640;-88
2021/12/24 05:29:51;;;;;;;8.07;4.80;;;;;;;8.11;92.45;97252.38;4927143;29;20703;-88
2021/12/24 05:32:20;;;;;;;6.03;5.00;;;;;;;8.08;91.76;97255.16;4908476;29;20710;-89
2021/12/24 05:34:48;;;;;;;13.87;9.90;;;;;;;8.07;92.68;97250.94;4928343;29;20733;-88
2021/12/24 05:37:16;;;;;;;14.10;10.73;;;;;;;8.01;91.26;97245.31;4928419;29;20635;-88
2021/12/24 05:39:45;;;;;;;13.83;10.07;;;;;;;7.95;91.53;97242.34;4927352;29;20742;-88
2021/12/24 05:42:16;;;;;;;10.90;7.83;;;;;;;7.86;91.24;97243.81;4905972;29;21190;-89
2021/12/24 05:44:44;;;;;;;11.03;6.67;;;;;;;7.88;90.89;97247.16;4912243;29;20728;-87
2021/12/24 05:47:34;;;;;;;8.40;6.47;;;;;;;7.95;91.16;97237.97;4924739;29;20641;-88
2021/12/24 05:50:07;;;;;;;9.60;6.97;;;;;;;7.97;92.07;97241.31;4945882;28;20694;-89
2021/12/24 05:52:58;;;;;;;9.77;6.30;;;;;;;7.91;91.97;97240.91;4920337;29;21275;-87
2021/12/24 05:55:54;;;;;;;9.17;6.10;;;;;;;7.94;91.41;97249.31;4929960;29;20638;-87
2021/12/24 05:58:23;;;;;;;10.10;7.40;;;;;;;7.93;92.09;97245.06;4925044;29;21226;-88
2021/12/24 06:00:53;;;;;;;14.40;8.20;;;;;;;7.93;92.63;97242.47;4913771;29;20658;-87
2021/12/24 06:03:27;;;;;;;11.37;7.97;;;;;;;7.91;92.33;97238.31;4929978;29;21236;-88
2021/12/24 06:05:55;;;;;;;9.70;7.77;;;;;;;7.96;91.75;97244.00;4932933;29;20796;-87
2021/12/24 06:08:24;;;;;;;8.97;6.43;;;;;;;7.98;92.28;97243.78;4931451;29;20736;-88
2021/12/24 06:10:52;;;;;;;7.87;5.90;;;;;;;8.04;92.73;97253.75;4943108;29;21003;-88
2021/12/24 06:13:20;;;;;;;9.43;6.20;;;;;;;8.10;92.65;97263.69;4911208;29;20646;-88
2021/12/24 06:15:49;;;;;;;7.60;6.23;;;;;;;8.14;92.56;97257.34;4930561;29;21014;-88
2021/12/24 06:18:23;;;;;;;8.30;6.33;;;;;;;8.17;90.90;97257.13;4932753;29;21266;-88
2021/12/24 06:20:54;;;;;;;11.83;6.80;;;;;;;8.24;91.56;97267.88;4929445;29;21307;-88
2021/12/24 06:23:24;;;;;;;7.77;6.13;;;;;;;8.27;91.21;97265.06;4933813;29;20635;-88
2021/12/24 06:25:55;;;;;;;8.63;6.17;;;;;;;8.28;91.55;97267.56;4928816;29;20638;-88
2021/12/24 06:28:23;;;;;;;8.77;6.20;;;;;;;8.29;91.99;97263.22;4932881;29;20629;-87
2021/12/24 06:30:52;;;;;;;10.30;6.67;;;;;;;8.25;90.78;97267.78;4946981;28;20638;-88
2021/12/24 06:33:21;;;;;;;8.73;6.07;;;;;;;8.20;90.97;97266.47;4929940;29;21097;-88
2021/12/24 06:35:50;;;;;;;9.07;6.30;;;;;;;8.17;90.71;97267.50;4916123;29;20653;-87
2021/12/24 06:38:20;;;;;;;9.37;7.67;;;;;;;8.16;91.65;97254.63;4929880;29;20641;-88
2021/12/24 06:40:48;;;;;;;13.40;9.90;;;;;;;8.10;91.39;97242.91;4930298;29;20645;-88
2021/12/24 06:43:16;;;;;;;11.20;9.20;;;;;;;8.04;90.35;97245.09;4932982;29;20643;-87
2021/12/24 06:45:47;;;;;;;8.73;6.90;;;;;;;8.02;91.81;97250.41;4931719;29;20739;-87
2021/12/24 06:48:15;;;;;;;12.77;7.80;;;;;;;8.06;91.04;97254.44;4925672;29;21211;-88
2021/12/24 06:50:43;;;;;;;11.00;7.80;;;;;;;8.10;91.77;97247.25;4928853;29;21033;-88
2021/12/24 06:53:13;;;;;;;13.20;7.80;;;;;;;8.11;91.97;97260.16;4933324;29;20640;-88
2021/12/24 06:55:44;;;;;;;11.93;7.73;;;;;;;8.15;91.14;97261.63;4930659;29;21072;-88
2021/12/24 06:58:13;;;;;;;6.87;6.00;;;;;;;8.19;90.68;97263.03;4933998;29;20727;-88
2021/12/24 07:00:42;;;;;;;12.27;6.50;;;;;;;8.23;90.60;97254.09;4931801;29;20644;-89
2021/12/24 07:03:10;;;;;;;8.80;6.13;;;;;;;8.25;91.24;97254.78;4930597;29;20646;-88
2021/12/24 07:05:41;;;;;;;9.00;7.13;;;;;;;8.33;91.88;97264.63;4926771;29;20662;-87
2021/12/24 07:08:10;;;;;;;8.87;6.50;;;;;;;8.41;91.07;97277.91;4930965;29;20637;-88
2021/12/24 07:10:38;;;;;;;8.53;6.83;;;;;;;8.44;90.53;97268.13;4932724;29;20662;-88
2021/12/24 07:13:07;;;;;;;8.27;6.37;;;;;;;8.45;90.41;97268.00;4944227;29;20633;-88
2021/12/24 07:15:36;;;;;;;11.23;7.00;;;;;;;8.44;90.41;97278.50;4931333;29;20649;-88
2021/12/24 07:18:04;;;;;;;12.20;8.70;;;;;;;8.44;90.53;97268.94;4935591;29;20617;-89
2021/12/24 07:20:32;;;;;;;10.60;8.53;;;;;;;8.43;90.72;97269.03;4929656;29;20650;-88
2021/12/24 07:23:00;;;;;;;9.80;8.30;;;;;;;8.44;90.01;97273.31;4932384;29;20730;-88
2021/12/24 07:25:28;;;;;;;12.60;8.87;;;;;;;8.44;89.78;97268.94;4928301;29;20645;-88
2021/12/24 07:27:57;;;;;;;13.27;8.53;;;;;;;8.45;89.84;97278.41;4931846;29;20811;-88
2021/12/24 07:30:30;;;;;;;10.70;7.23;;;;;;;8.41;89.97;97278.72;4932232;29;20654;-88
2021/12/24 07:33:00;;;;;;;8.77;6.63;;;;;;;8.43;90.11;97284.63;4937285;29;21176;-88
2021/12/24 07:35:31;;;;;;;7.23;5.60;;;;;;;8.40;90.95;97292.66;4932877;29;20620;-88
2021/12/24 07:37:59;;;;;;;9.40;7.40;;;;;;;8.43;91.57;97291.63;4928511;29;20646;-88
2021/12/24 07:40:28;;;;;;;9.67;7.60;;;;;;;8.45;90.21;97280.19;4929695;29;20638;-88
2021/12/24 07:42:56;;;;;;;8.97;6.20;;;;;;;8.52;91.35;97291.75;4930537;29;21232;-87
2021/12/24 07:45:27;;;;;;;8.60;5.50;;;;;;;8.53;91.74;97281.25;4931949;29;20691;-95
2021/12/24 07:48:10;;;;;;;7.23;5.13;;;;;;;8.56;91.03;97277.63;4916071;29;20647;-88
2021/12/24 07:53:27;;;;;;;7.63;5.20;;;;;;;8.65;91.04;97275.16;4947135;28;21268;-89
2021/12/24 07:55:56;;;;;;;5.73;5.00;;;;;;;8.69;91.50;97266.22;4931895;29;20646;-90
2021/12/24 07:58:25;;;;;;;6.60;5.10;;;;;;;8.72;91.58;97273.78;4928677;29;20747;-89
2021/12/24 08:00:53;;;;;;;6.00;5.40;;;;;;;8.74;90.21;97276.25;4944722;28;20643;-90
2021/12/24 08:03:26;;;;;;;6.37;4.93;;;;;;;8.78;90.42;97283.72;4929364;29;20652;-87
2021/12/24 08:05:54;;;;;;;9.03;6.40;;;;;;;8.76;90.16;97274.38;4927108;29;20664;-87
2021/12/24 08:08:25;;;;;;;109.47;58.30;;;;;;;8.76;90.88;97274.38;4925808;29;20635;-88
2021/12/24 08:10:53;;;;;;;50.23;29.47;;;;;;;8.74;90.39;97268.47;4924956;29;20675;-88
2021/12/24 08:13:21;;;;;;;16.80;12.27;;;;;;;8.75;90.63;97272.69;4931057;29;21196;-87
2021/12/24 08:15:53;;;;;;;12.50;10.27;;;;;;;8.79;91.14;97266.34;4927555;29;20656;-87
2021/12/24 08:18:23;;;;;;;12.00;9.50;;;;;;;8.84;91.07;97252.06;4930146;29;20652;-89
2021/12/24 08:20:53;;;;;;;8.90;6.40;;;;;;;8.84;90.57;97257.28;4946629;28;20655;-87
2021/12/24 08:23:21;;;;;;;7.20;5.77;;;;;;;8.87;90.19;97257.03;4908352;29;20674;-85
2021/12/24 08:25:53;;;;;;;9.27;6.10;;;;;;;8.91;90.68;97263.66;4930163;29;20644;-85
2021/12/24 08:28:21;;;;;;;9.83;6.60;;;;;;;8.95;90.68;97255.50;4926315;29;21200;-84
2021/12/24 08:30:49;;;;;;;10.50;6.63;;;;;;;9.00;91.01;97260.34;4929856;29;21016;-85
2021/12/24 08:33:17;;;;;;;9.83;6.40;;;;;;;9.04;91.61;97254.00;4929436;29;20640;-86
2021/12/24 08:35:47;;;;;;;9.37;7.53;;;;;;;9.10;90.95;97269.97;4929780;29;20638;-85
2021/12/24 08:38:15;;;;;;;11.30;7.43;;;;;;;9.13;90.52;97279.31;4928169;29;21216;-85
2021/12/24 08:40:44;;;;;;;7.33;6.40;;;;;;;9.16;91.36;97273.88;4930509;29;20631;-85
2021/12/24 08:43:14;;;;;;;9.10;7.83;;;;;;;9.18;90.83;97271.97;4944716;29;20638;-85
2021/12/24 08:45:42;;;;;;;10.27;7.43;;;;;;;9.16;90.57;97266.91;4928770;29;20707;-84
2021/12/24 08:48:10;;;;;;;10.40;7.70;;;;;;;9.18;90.91;97259.78;4927592;29;20780;-85
2021/12/24 08:50:39;;;;;;;11.67;7.47;;;;;;;9.22;90.65;97257.81;4908638;29;20704;-87
2021/12/24 08:53:08;;;;;;;10.13;7.40;;;;;;;9.23;90.40;97262.03;4925727;29;20701;-86
2021/12/24 08:55:37;;;;;;;8.90;7.63;;;;;;;9.20;89.94;97257.06;4920968;29;20696;-84
2021/12/24 08:58:05;;;;;;;13.50;8.00;;;;;;;9.15;89.67;97256.59;4944950;28;20656;-89
2021/12/24 09:00:34;;;;;;;9.47;7.80;;;;;;;9.12;90.16;97255.06;4927663;29;20685;-82
2021/12/24 09:03:03;;;;;;;24.27;18.33;;;;;;;9.08;89.64;97258.84;4927539;29;20640;-85
2021/12/24 09:05:31;;;;;;;15.50;12.20;;;;;;;9.07;90.55;97267.59;4923706;29;20696;-85
2021/12/24 09:08:01;;;;;;;11.00;9.90;;;;;;;9.06;90.66;97275.50;4923547;29;20644;-84
2021/12/24 09:10:33;;;;;;;11.53;9.27;;;;;;;9.07;89.80;97274.56;4926804;29;20665;-84
2021/12/24 09:13:01;;;;;;;12.03;7.40;;;;;;;9.06;90.37;97267.69;4927450;29;20646;-85
2021/12/24 09:15:33;;;;;;;10.57;8.03;;;;;;;9.05;90.14;97266.88;4909413;29;20687;-86
2021/12/24 09:18:03;;;;;;;9.17;7.43;;;;;;;9.06;90.11;97268.53;4920207;29;20643;-88
2021/12/24 09:20:38;;;;;;;12.20;7.30;;;;;;;9.08;90.14;97271.84;4928673;29;21738;-84
2021/12/24 09:23:06;;;;;;;10.97;8.37;;;;;;;9.08;90.82;97271.00;4930090;29;20669;-84
2021/12/24 09:25:36;;;;;;;9.00;7.50;;;;;;;9.11;91.74;97274.22;4926291;29;20686;-83
2021/12/24 09:28:05;;;;;;;12.63;7.53;;;;;;;9.14;91.36;97273.16;4945515;28;20983;-85
2021/12/24 09:30:34;;;;;;;8.70;7.20;;;;;;;9.15;90.68;97272.22;4926823;29;20656;-85
2021/12/24 09:33:06;;;;;;;9.87;8.10;;;;;;;9.15;90.33;97265.22;4908119;29;21247;-87
2021/12/24 09:35:35;;;;;;;11.20;8.23;;;;;;;9.15;89.98;97260.03;4916578;29;20630;-84
2021/12/24 09:38:03;;;;;;;12.20;9.10;;;;;;;9.19;90.78;97266.66;4939979;28;21202;-86
2021/12/24 09:40:35;;;;;;;11.00;8.53;;;;;;;9.21;91.45;97259.56;4912838;29;20637;-85
2021/12/24 09:43:05;;;;;;;11.07;8.60;;;;;;;9.24;91.04;97267.13;4929696;29;20701;-85
2021/12/24 09:45:33;;;;;;;11.83;8.13;;;;;;;9.25;90.58;97258.41;4932149;29;20664;-84
2021/12/24 09:48:01;;;;;;;51.50;33.97;;;;;;;9.28;90.30;97265.16;4931060;29;21200;-84
2021/12/24 09:50:29;;;;;;;16.07;12.07;;;;;;;9.29;90.78;97253.78;4938445;29;20640;-84
2021/12/24 09:52:58;;;;;;;10.23;8.23;;;;;;;9.29;90.54;97261.56;4924464;29;20741;-85
2021/12/24 09:55:29;;;;;;;13.27;10.30;;;;;;;9.29;91.01;97262.44;4926135;29;20644;-84
2021/12/24 09:57:57;;;;;;;11.70;8.77;;;;;;;9.31;91.07;97251.91;4934189;29;20644;-85
2021/12/24 10:00:28;;;;;;;10.30;8.90;;;;;;;9.30;90.95;97251.06;4930349;29;21317;-85
2021/12/24 10:02:58;;;;;;;10.80;9.27;;;;;;;9.31;91.09;97257.94;4926486;29;20689;-89
2021/12/24 10:05:36;;;;;;;14.20;9.50;;;;;;;9.33;92.03;97260.41;4924353;29;20673;-85
2021/12/24 10:08:08;;;;;;;16.40;10.17;;;;;;;9.36;92.12;97258.38;4931012;29;20651;-86
2021/12/24 10:10:40;;;;;;;12.50;9.30;;;;;;;9.39;92.72;97252.94;4933718;29;20636;-85
2021/12/24 10:13:36;;;;;;;13.67;9.97;;;;;;;9.42;92.59;97261.34;4913365;29;20625;-85
2021/12/24 10:16:08;;;;;;;13.20;10.33;;;;;;;9.44;92.37;97258.63;4948293;28;20634;-86
2021/12/24 10:18:40;;;;;;;11.33;8.83;;;;;;;9.46;92.45;97252.38;4932214;29;20641;-86
2021/12/24 10:21:12;;;;;;;11.97;9.17;;;;;;;9.47;92.89;97251.44;4912141;29;20642;-86
2021/12/24 10:23:50;;;;;;;10.33;8.60;;;;;;;9.50;93.37;97247.75;4934761;29;21162;-86
2021/12/24 10:26:25;;;;;;;30.37;20.47;;;;;;;9.51;93.34;97239.81;4925033;29;20736;-86
2021/12/24 10:29:06;;;;;;;26.17;18.47;;;;;;;9.49;93.02;97235.69;4933889;29;21201;-85
2021/12/24 10:31:43;;;;;;;26.30;18.70;;;;;;;9.47;93.71;97242.78;4933931;29;20656;-87
2021/12/24 10:34:14;;;;;;;17.67;14.47;;;;;;;9.45;93.52;97242.88;4921813;29;20738;-84
2021/12/24 10:37:10;;;;;;;31.80;22.97;;;;;;;9.47;93.77;97245.38;4935149;29;21232;-84
2021/12/24 10:39:41;;;;;;;17.30;10.83;;;;;;;9.47;93.85;97229.75;4946093;28;20646;-83
2021/12/24 10:42:13;;;;;;;14.70;10.20;;;;;;;9.47;93.63;97233.22;4926159;29;20643;-83
2021/12/24 10:44:43;;;;;;;13.37;10.10;;;;;;;9.48;94.34;97223.63;4924079;29;20646;-85
2021/12/24 10:47:16;;;;;;;14.73;10.80;;;;;;;9.49;94.30;97222.69;4922920;29;20719;-90
2021/12/24 10:53:11;;;;;;;15.07;11.47;;;;;;;9.49;94.70;97222.69;4914241;28;21248;-88
2021/12/24 10:55:46;;;;;;;14.83;10.90;;;;;;;9.49;94.59;97225.28;4924506;29;20679;-87
2021/12/24 10:58:17;;;;;;;26.00;15.93;;;;;;;9.49;94.98;97217.47;4910837;29;21030;-86
2021/12/24 11:00:48;;;;;;;15.70;11.10;;;;;;;9.45;95.30;97213.44;4930140;29;20648;-86
2021/12/24 11:03:22;;;;;;;17.93;11.17;;;;;;;9.45;94.97;97213.44;4920554;29;20644;-86
2021/12/24 11:05:52;;;;;;;27.77;17.00;;;;;;;9.43;94.80;97215.34;4913852;29;21316;-86
2021/12/24 11:08:22;;;;;;;26.40;16.10;;;;;;;9.43;94.85;97210.16;4932317;29;20634;-86
2021/12/24 11:10:51;;;;;;;20.53;14.73;;;;;;;9.47;95.22;97206.34;4913428;29;20638;-84
2021/12/24 11:13:21;;;;;;;28.13;20.10;;;;;;;9.46;94.81;97197.72;4933454;29;21726;-86
2021/12/24 11:15:50;;;;;;;24.70;18.70;;;;;;;9.45;95.22;97196.03;4923381;29;20643;-86
2021/12/24 11:18:22;;;;;;;28.13;19.80;;;;;;;9.43;95.26;97195.34;4928752;29;20753;-86
2021/12/24 11:20:55;;;;;;;26.57;17.80;;;;;;;9.43;95.21;97195.34;4928817;29;20671;-86
2021/12/24 11:23:26;;;;;;;22.27;17.23;;;;;;;9.44;95.42;97198.78;4915295;29;21206;-88
2021/12/24 11:25:56;;;;;;;22.80;15.83;;;;;;;9.46;95.39;97207.31;4948933;28;20692;-86
2021/12/24 11:28:26;;;;;;;20.30;14.80;;;;;;;9.46;96.02;97194.28;4939437;28;21201;-88
2021/12/24 11:30:56;;;;;;;18.07;12.40;;;;;;;9.48;95.71;97210.59;4912745;29;20640;-88
2021/12/24 11:33:29;;;;;;;25.47;17.70;;;;;;;9.49;96.24;97200.06;4911518;29;21488;-91
2021/12/24 11:35:58;;;;;;;20.43;15.53;;;;;;;9.50;96.15;97203.50;4908117;29;21245;-86
2021/12/24 11:38:28;;;;;;;22.20;14.70;;;;;;;9.52;96.08;97204.22;4931005;29;20659;-86
2021/12/24 11:40:59;;;;;;;16.90;14.57;;;;;;;9.52;96.07;97201.63;4930663;29;20734;-87
2021/12/24 11:43:32;;;;;;;21.27;15.50;;;;;;;9.55;96.13;97193.56;4944935;29;21259;-86
2021/12/24 11:46:02;;;;;;;18.73;14.53;;;;;;;9.55;96.38;97188.38;4916707;29;20641;-86
2021/12/24 11:48:34;;;;;;;19.90;14.57;;;;;;;9.58;96.31;97188.94;4928360;29;20636;-86
2021/12/24 11:51:04;;;;;;;17.50;12.83;;;;;;;9.55;96.26;97194.38;4915480;29;21214;-86
2021/12/24 11:53:33;;;;;;;45.03;33.67;;;;;;;9.56;96.40;97182.19;4931206;29;20739;-87
2021/12/24 11:56:04;;;;;;;23.70;17.97;;;;;;;9.57;96.58;97174.25;4949957;28;20677;-87
2021/12/24 11:58:33;;;;;;;20.03;15.30;;;;;;;9.58;96.69;97178.53;4933950;29;20686;-87
2021/12/24 12:01:05;;;;;;;18.50;14.40;;;;;;;9.61;96.82;97177.47;4942686;28;20637;-88
2021/12/24 12:03:37;;;;;;;18.97;13.90;;;;;;;9.63;96.71;97178.16;4909377;29;20695;-88
2021/12/24 12:06:07;;;;;;;18.27;14.57;;;;;;;9.65;96.99;97177.13;4919800;29;21189;-88
2021/12/24 12:08:42;;;;;;;15.47;13.40;;;;;;;9.69;96.39;97181.09;4930912;29;21241;-88
2021/12/24 12:11:21;;;;;;;17.90;12.80;;;;;;;9.72;96.78;97169.63;4928177;29;21257;-88
2021/12/24 12:13:55;;;;;;;15.63;11.97;;;;;;;9.72;97.41;97160.03;4911522;29;20666;-88
2021/12/24 12:16:26;;;;;;;16.80;12.23;;;;;;;9.77;97.23;97157.88;4904851;29;20728;-86
2021/12/24 12:19:14;;;;;;;14.23;11.63;;;;;;;9.81;97.11;97142.88;4929166;29;20688;-86
2021/12/24 12:22:12;;;;;;;25.23;18.57;;;;;;;9.84;97.33;97137.41;4931240;29;20645;-86
2021/12/24 12:27:37;;;;;;;17.93;12.70;;;;;;;9.89;97.11;97139.53;4928775;29;20643;-85
2021/12/24 12:30:29;;;;;;;21.80;16.77;;;;;;;9.91;97.40;97129.78;4916058;29;20755;-86
2021/12/24 12:33:10;;;;;;;13.53;11.27;;;;;;;9.90;97.33;97122.94;4927469;29;20686;-86
2021/12/24 12:35:50;;;;;;;12.07;9.17;;;;;;;9.87;97.52;97127.56;4928305;29;20636;-86
2021/12/24 12:38:31;;;;;;;9.33;7.50;;;;;;;9.88;97.44;97119.63;4927267;29;20692;-89
2021/12/24 12:41:19;;;;;;;10.10;8.13;;;;;;;9.91;97.82;97124.59;4925062;29;20650;-86
2021/12/24 12:43:50;;;;;;;15.60;13.13;;;;;;;9.87;97.33;97127.56;4928464;29;20637;-84
2021/12/24 12:46:20;;;;;;;23.03;16.10;;;;;;;9.74;97.66;97119.09;4926790;29;21044;-84
2021/12/24 12:48:53;;;;;;;20.00;16.57;;;;;;;9.70;97.80;97124.69;4929263;29;20646;-84
2021/12/24 12:51:52;;;;;;;23.50;17.60;;;;;;;9.69;98.16;97123.84;4927094;29;21055;-84
2021/12/24 12:54:31;;;;;;;22.13;16.37;;;;;;;9.73;98.37;97114.03;4942217;28;20636;-87
2021/12/24 12:57:21;;;;;;;42.80;26.00;;;;;;;9.76;98.26;97121.56;4906336;29;20646;-86
2021/12/24 13:00:18;;;;;;;24.60;17.37;;;;;;;9.78;98.33;97119.69;4921805;29;20634;-84
2021/12/24 13:03:10;;;;;;;27.13;19.20;;;;;;;9.80;98.19;97117.75;4930577;29;20645;-83
2021/12/24 13:05:58;;;;;;;27.73;18.50;;;;;;;9.82;98.11;97121.91;4930742;29;20668;-85
2021/12/24 13:08:29;;;;;;;21.20;14.10;;;;;;;9.83;98.02;97112.31;4928167;29;20685;-85
2021/12/24 13:11:01;;;;;;;16.23;12.00;;;;;;;9.83;97.56;97112.31;4923215;29;20655;-85
2021/12/24 13:13:30;;;;;;;13.97;11.77;;;;;;;9.83;97.26;97109.72;4911954;29;20675;-85